Time;durP1;ratioP1;P1;durP2;ratioP2;P2;SDS_P1;SDS_P2;PMS_P1;PMS_P2;Temp;Humidity;BMP_temperature;BMP_pressure;BME280_temperature;BME280_humidity;BME280_pressure;Samples;Min_cycle;Max_cycle;Signal;HPM_P1;HPM_P2
2023/04/08 00:01:14;;;;;;;12.50;10.47;;;;;;;;;;5010179;28;20178;-54
2023/04/08 00:03:40;;;;;;;14.00;10.97;;;;;;;;;;5012071;28;20186;-54
2023/04/08 00:06:07;;;;;;;11.33;9.63;;;;;;;;;;5010670;28;20547;-54
2023/04/08 00:08:33;;;;;;;12.70;11.03;;;;;;;;;;5010726;28;20225;-55
2023/04/08 00:10:59;;;;;;;12.63;10.90;;;;;;;;;;5011464;28;20202;-55
2023/04/08 00:13:25;;;;;;;11.20;9.60;;;;;;;;;;5007978;28;20205;-55
2023/04/08 00:15:51;;;;;;;11.10;9.60;;;;;;;;;;5014386;28;20555;-55
2023/04/08 00:18:17;;;;;;;11.17;9.97;;;;;;;;;;5004693;28;20203;-54
2023/04/08 00:20:44;;;;;;;12.93;11.37;;;;;;;;;;5009042;28;20222;-54
2023/04/08 00:23:10;;;;;;;11.27;9.90;;;;;;;;;;5009077;28;20669;-54
2023/04/08 00:25:36;;;;;;;12.43;10.43;;;;;;;;;;5007834;28;20174;-54
2023/04/08 00:28:02;;;;;;;11.50;10.23;;;;;;;;;;5010431;28;20198;-54
2023/04/08 00:30:29;;;;;;;12.03;10.73;;;;;;;;;;5009252;28;20653;-54
2023/04/08 00:32:55;;;;;;;10.07;9.07;;;;;;;;;;5008967;28;20185;-54
2023/04/08 00:35:21;;;;;;;11.03;9.93;;;;;;;;;;5009417;28;20186;-54
2023/04/08 00:37:47;;;;;;;10.03;8.73;;;;;;;;;;5016189;28;20689;-54
2023/04/08 00:40:13;;;;;;;11.43;10.07;;;;;;;;;;5010836;28;20182;-54
2023/04/08 00:42:39;;;;;;;10.77;9.57;;;;;;;;;;5010015;28;20193;-55
2023/04/08 00:45:05;;;;;;;12.60;10.33;;;;;;;;;;5019921;28;20178;-54
2023/04/08 00:47:31;;;;;;;11.77;10.17;;;;;;;;;;5008721;28;20189;-54
2023/04/08 00:49:57;;;;;;;11.23;9.43;;;;;;;;;;5009372;28;20187;-55
2023/04/08 00:52:23;;;;;;;10.90;9.77;;;;;;;;;;5008662;28;20182;-55
2023/04/08 00:54:49;;;;;;;10.90;9.80;;;;;;;;;;5013263;28;20186;-54
2023/04/08 00:57:16;;;;;;;12.40;9.80;;;;;;;;;;5008845;28;20206;-54
2023/04/08 00:59:42;;;;;;;10.83;9.47;;;;;;;;;;5018560;28;20181;-54
2023/04/08 01:02:08;;;;;;;11.80;10.60;;;;;;;;;;5006210;28;20201;-54
2023/04/08 01:04:37;;;;;;;11.77;10.57;;;;;;;;;;5015191;28;20252;-54
2023/04/08 01:07:25;;;;;;;11.60;9.63;;;;;;;;;;5014087;28;20592;-55
2023/04/08 01:09:55;;;;;;;13.83;10.50;;;;;;;;;;5006808;28;20189;-55
2023/04/08 01:12:26;;;;;;;11.77;10.20;;;;;;;;;;5010610;28;20213;-55
2023/04/08 01:14:56;;;;;;;10.90;9.80;;;;;;;;;;5008388;28;20190;-55
2023/04/08 01:17:23;;;;;;;11.37;10.10;;;;;;;;;;5005479;28;20210;-55
2023/04/08 01:19:50;;;;;;;11.93;9.90;;;;;;;;;;5010821;28;20290;-55
2023/04/08 01:22:27;;;;;;;10.80;9.70;;;;;;;;;;5007293;28;20709;-55
2023/04/08 01:25:00;;;;;;;11.27;10.07;;;;;;;;;;5005437;28;20178;-55
2023/04/08 01:27:27;;;;;;;11.60;10.40;;;;;;;;;;5005522;28;20178;-54
2023/04/08 01:29:53;;;;;;;10.43;9.30;;;;;;;;;;5008775;28;20178;-55
2023/04/08 01:32:20;;;;;;;11.03;9.90;;;;;;;;;;5006103;28;20175;-55
2023/04/08 01:34:46;;;;;;;10.90;9.70;;;;;;;;;;5001603;28;20187;-55
2023/04/08 01:37:13;;;;;;;10.90;9.80;;;;;;;;;;5010086;28;20213;-55
2023/04/08 01:39:40;;;;;;;10.03;8.90;;;;;;;;;;5005547;28;20682;-55
2023/04/08 01:42:06;;;;;;;10.50;9.10;;;;;;;;;;5006255;28;20178;-55
2023/04/08 01:44:32;;;;;;;11.43;10.33;;;;;;;;;;5006942;28;20258;-55
2023/04/08 01:46:59;;;;;;;11.37;10.13;;;;;;;;;;5003345;28;20242;-55
2023/04/08 01:49:25;;;;;;;10.77;9.23;;;;;;;;;;5002992;28;20179;-55
2023/04/08 01:51:52;;;;;;;10.07;9.07;;;;;;;;;;5005490;28;20182;-55
2023/04/08 01:54:19;;;;;;;10.27;9.17;;;;;;;;;;5005799;28;20193;-55
2023/04/08 01:56:46;;;;;;;11.73;10.53;;;;;;;;;;5005682;28;20265;-55
2023/04/08 01:59:14;;;;;;;10.80;9.70;;;;;;;;;;5008963;28;20182;-55
2023/04/08 02:01:41;;;;;;;10.60;9.50;;;;;;;;;;5011989;28;20171;-55
2023/04/08 02:04:07;;;;;;;9.53;8.53;;;;;;;;;;5007440;28;20578;-54
2023/04/08 02:06:33;;;;;;;9.77;8.27;;;;;;;;;;5008890;28;21909;-55
2023/04/08 02:09:00;;;;;;;10.97;8.97;;;;;;;;;;5004771;28;20175;-55
2023/04/08 02:11:28;;;;;;;9.63;8.57;;;;;;;;;;5006751;28;20491;-55
2023/04/08 02:13:54;;;;;;;10.97;9.70;;;;;;;;;;5011877;28;20244;-55
2023/04/08 02:16:29;;;;;;;9.67;8.77;;;;;;;;;;5011312;28;20270;-55
2023/04/08 02:18:58;;;;;;;10.80;9.73;;;;;;;;;;5008174;28;20223;-55
2023/04/08 02:21:28;;;;;;;8.83;7.87;;;;;;;;;;5010601;28;20238;-55
2023/04/08 02:23:55;;;;;;;10.40;9.27;;;;;;;;;;5006937;28;20183;-55
2023/04/08 02:26:22;;;;;;;9.60;8.70;;;;;;;;;;5008247;28;21162;-55
2023/04/08 02:28:49;;;;;;;11.07;9.97;;;;;;;;;;5006065;28;20194;-55
2023/04/08 02:31:16;;;;;;;10.13;9.20;;;;;;;;;;5005413;28;20178;-55
2023/04/08 02:33:42;;;;;;;9.20;8.30;;;;;;;;;;5004164;28;20190;-55
2023/04/08 02:36:09;;;;;;;9.73;8.43;;;;;;;;;;5011646;28;20214;-54
2023/04/08 02:38:35;;;;;;;10.00;9.00;;;;;;;;;;5014999;28;20575;-55
2023/04/08 02:41:01;;;;;;;9.87;8.87;;;;;;;;;;5023684;28;20190;-55
2023/04/08 02:43:31;;;;;;;10.17;9.10;;;;;;;;;;5012872;28;20205;-55
2023/04/08 02:45:58;;;;;;;9.37;8.47;;;;;;;;;;5012516;28;20541;-55
2023/04/08 02:48:24;;;;;;;9.63;8.73;;;;;;;;;;5010249;28;20661;-55
2023/04/08 02:50:50;;;;;;;10.77;9.73;;;;;;;;;;5015251;28;20209;-55
2023/04/08 02:53:16;;;;;;;9.87;8.90;;;;;;;;;;5020631;28;20218;-55
2023/04/08 02:55:42;;;;;;;8.80;7.90;;;;;;;;;;5007548;28;20194;-55
2023/04/08 02:58:08;;;;;;;9.03;8.23;;;;;;;;;;5006166;28;20202;-55
2023/04/08 03:00:35;;;;;;;9.90;8.90;;;;;;;;;;5016316;28;20215;-55
2023/04/08 03:03:01;;;;;;;9.03;8.13;;;;;;;;;;5005591;28;20685;-55
2023/04/08 03:05:27;;;;;;;8.50;7.70;;;;;;;;;;5012651;28;20178;-55
2023/04/08 03:07:53;;;;;;;10.77;9.73;;;;;;;;;;5008258;28;20200;-55
2023/04/08 03:10:19;;;;;;;9.73;8.10;;;;;;;;;;5007801;28;20717;-55
2023/04/08 03:12:45;;;;;;;9.87;8.90;;;;;;;;;;5003439;28;20210;-55
2023/04/08 03:15:11;;;;;;;9.47;8.53;;;;;;;;;;5008434;28;20240;-55
2023/04/08 03:17:37;;;;;;;9.97;9.00;;;;;;;;;;5009311;28;20642;-55
2023/04/08 03:20:03;;;;;;;8.87;8.07;;;;;;;;;;5016139;28;20170;-55
2023/04/08 03:22:30;;;;;;;9.63;8.63;;;;;;;;;;5006919;28;20293;-55
2023/04/08 03:24:56;;;;;;;9.30;8.40;;;;;;;;;;5009888;28;20186;-55
2023/04/08 03:27:22;;;;;;;10.23;9.23;;;;;;;;;;5004548;28;20201;-55
2023/04/08 03:29:48;;;;;;;8.50;7.73;;;;;;;;;;5013047;28;20192;-55
2023/04/08 03:32:14;;;;;;;10.37;9.30;;;;;;;;;;5007376;28;20175;-55
2023/04/08 03:34:40;;;;;;;8.93;8.10;;;;;;;;;;5005231;28;20228;-55
2023/04/08 03:37:06;;;;;;;7.83;7.13;;;;;;;;;;5010377;28;20599;-55
2023/04/08 03:39:32;;;;;;;9.43;8.53;;;;;;;;;;5005142;28;20197;-55
2023/04/08 03:41:59;;;;;;;9.50;8.60;;;;;;;;;;5007357;28;20249;-55
2023/04/08 03:44:26;;;;;;;8.77;8.07;;;;;;;;;;5009218;28;20727;-55
2023/04/08 03:46:52;;;;;;;9.03;8.20;;;;;;;;;;5009427;28;20706;-54
2023/04/08 03:49:18;;;;;;;8.37;7.57;;;;;;;;;;5008505;28;20202;-54
2023/04/08 03:51:44;;;;;;;8.43;7.53;;;;;;;;;;5013233;28;20197;-54
2023/04/08 03:54:10;;;;;;;8.40;7.60;;;;;;;;;;5007098;28;20228;-55
2023/04/08 03:56:36;;;;;;;8.63;7.83;;;;;;;;;;5009992;28;20195;-55
2023/04/08 03:59:03;;;;;;;8.03;7.30;;;;;;;;;;5009908;28;20175;-55
2023/04/08 04:01:31;;;;;;;7.97;7.17;;;;;;;;;;5008320;28;20178;-55
2023/04/08 04:03:57;;;;;;;8.63;7.83;;;;;;;;;;5006631;28;20185;-55
2023/04/08 04:06:23;;;;;;;8.73;7.93;;;;;;;;;;5007206;28;20202;-55
2023/04/08 04:08:49;;;;;;;9.07;8.13;;;;;;;;;;5007484;28;20551;-55
2023/04/08 04:11:15;;;;;;;8.90;8.00;;;;;;;;;;5008115;28;20618;-55
2023/04/08 04:13:41;;;;;;;8.40;7.60;;;;;;;;;;5007646;28;20266;-55
2023/04/08 04:16:07;;;;;;;9.27;8.37;;;;;;;;;;5013657;28;20178;-55
2023/04/08 04:18:33;;;;;;;8.10;7.30;;;;;;;;;;5011829;28;20255;-55
2023/04/08 04:20:59;;;;;;;8.57;7.77;;;;;;;;;;5010436;28;20230;-55
2023/04/08 04:23:25;;;;;;;8.27;7.53;;;;;;;;;;5010212;28;20183;-55
2023/04/08 04:25:51;;;;;;;8.80;8.00;;;;;;;;;;5008763;28;20346;-55
2023/04/08 04:28:17;;;;;;;8.30;7.50;;;;;;;;;;5010240;28;20187;-55
2023/04/08 04:30:44;;;;;;;8.53;7.73;;;;;;;;;;5011671;28;20185;-55
2023/04/08 04:33:10;;;;;;;10.07;9.17;;;;;;;;;;5006361;28;20191;-55
2023/04/08 04:35:36;;;;;;;7.67;6.97;;;;;;;;;;5005292;28;20186;-54
2023/04/08 04:38:04;;;;;;;8.40;7.70;;;;;;;;;;5005240;28;20609;-55
2023/04/08 04:40:30;;;;;;;8.20;7.40;;;;;;;;;;5007008;28;20550;-55
2023/04/08 04:42:56;;;;;;;9.17;8.27;;;;;;;;;;5007174;28;20182;-54
2023/04/08 04:45:22;;;;;;;8.77;7.97;;;;;;;;;;5006287;28;20182;-55
2023/04/08 04:47:48;;;;;;;8.57;7.80;;;;;;;;;;5006390;28;20185;-55
2023/04/08 04:50:14;;;;;;;8.50;7.70;;;;;;;;;;5006966;28;20530;-55
2023/04/08 04:52:40;;;;;;;8.73;7.93;;;;;;;;;;5007839;28;20654;-54
2023/04/08 04:55:07;;;;;;;8.23;7.47;;;;;;;;;;5004727;28;20657;-54
2023/04/08 04:57:33;;;;;;;7.90;7.20;;;;;;;;;;5010536;28;20190;-55
2023/04/08 04:59:59;;;;;;;7.63;6.93;;;;;;;;;;5011114;28;20186;-55
2023/04/08 05:02:25;;;;;;;8.17;7.40;;;;;;;;;;5005311;28;20269;-55
2023/04/08 05:04:54;;;;;;;8.40;7.60;;;;;;;;;;5010887;28;20181;-55
2023/04/08 05:07:21;;;;;;;8.83;8.03;;;;;;;;;;5004956;28;20269;-54
2023/04/08 05:09:47;;;;;;;7.40;6.70;;;;;;;;;;5003992;28;20252;-54
2023/04/08 05:12:13;;;;;;;7.83;7.13;;;;;;;;;;5009075;28;20689;-54
2023/04/08 05:14:41;;;;;;;8.60;7.80;;;;;;;;;;5006891;28;20642;-55
2023/04/08 05:17:07;;;;;;;8.67;7.50;;;;;;;;;;5011524;28;20667;-55
2023/04/08 05:19:33;;;;;;;8.47;7.27;;;;;;;;;;5007387;28;20642;-55
2023/04/08 05:21:59;;;;;;;7.90;7.10;;;;;;;;;;5008447;28;20300;-55
2023/04/08 05:24:25;;;;;;;8.83;8.03;;;;;;;;;;5007408;28;21246;-55
2023/04/08 05:26:52;;;;;;;8.07;7.37;;;;;;;;;;5008068;28;20658;-55
2023/04/08 05:29:20;;;;;;;7.97;7.17;;;;;;;;;;5006373;28;20182;-55
2023/04/08 05:31:46;;;;;;;8.40;7.60;;;;;;;;;;5006405;28;20193;-56
2023/04/08 05:34:12;;;;;;;8.70;7.90;;;;;;;;;;5005293;28;20170;-60
2023/04/08 05:36:38;;;;;;;8.20;7.43;;;;;;;;;;5012824;28;20181;-55
2023/04/08 05:39:04;;;;;;;7.20;6.60;;;;;;;;;;5005483;28;20228;-55
2023/04/08 05:41:30;;;;;;;7.67;6.97;;;;;;;;;;4997489;28;20185;-55
2023/04/08 05:43:56;;;;;;;8.87;7.80;;;;;;;;;;5009402;28;20191;-55
2023/04/08 05:46:23;;;;;;;8.10;7.37;;;;;;;;;;5009349;28;20174;-55
2023/04/08 05:48:49;;;;;;;8.60;7.70;;;;;;;;;;5005842;28;20330;-55
2023/04/08 05:51:16;;;;;;;7.73;7.03;;;;;;;;;;5006005;28;20200;-55
2023/04/08 05:53:42;;;;;;;8.70;7.90;;;;;;;;;;5008984;28;20198;-55
2023/04/08 05:56:09;;;;;;;7.93;7.13;;;;;;;;;;5006605;28;20194;-55
2023/04/08 05:58:35;;;;;;;8.60;7.73;;;;;;;;;;5010511;28;20210;-55
2023/04/08 06:01:01;;;;;;;7.87;7.07;;;;;;;;;;5006080;28;20261;-55
2023/04/08 06:03:27;;;;;;;8.93;8.03;;;;;;;;;;5003699;28;20178;-55
2023/04/08 06:05:53;;;;;;;7.43;6.63;;;;;;;;;;5005933;28;20204;-56
2023/04/08 06:08:20;;;;;;;9.00;8.20;;;;;;;;;;5007673;28;20245;-55
2023/04/08 06:10:53;;;;;;;8.87;8.07;;;;;;;;;;5005829;28;20194;-54
2023/04/08 06:13:20;;;;;;;8.90;8.00;;;;;;;;;;5013058;28;20178;-58
2023/04/08 06:15:47;;;;;;;9.30;8.13;;;;;;;;;;5008129;28;20670;-53
2023/04/08 06:18:14;;;;;;;9.07;8.17;;;;;;;;;;5009030;28;20210;-53
2023/04/08 06:20:40;;;;;;;9.93;8.93;;;;;;;;;;5005505;28;20517;-53
2023/04/08 06:23:06;;;;;;;9.73;8.80;;;;;;;;;;5005775;28;20939;-53
2023/04/08 06:25:32;;;;;;;9.67;8.47;;;;;;;;;;5010157;28;20583;-54
2023/04/08 06:27:59;;;;;;;9.23;8.33;;;;;;;;;;5007443;28;20179;-53
2023/04/08 06:30:25;;;;;;;9.77;8.77;;;;;;;;;;5007736;28;20183;-53
2023/04/08 06:32:51;;;;;;;9.43;8.53;;;;;;;;;;5007890;28;20185;-53
2023/04/08 06:35:17;;;;;;;10.03;8.93;;;;;;;;;;5001959;28;20202;-54
2023/04/08 06:37:43;;;;;;;9.87;8.77;;;;;;;;;;5009714;28;20259;-53
2023/04/08 06:40:09;;;;;;;11.20;10.00;;;;;;;;;;5006289;28;20268;-53
2023/04/08 06:42:37;;;;;;;11.23;9.73;;;;;;;;;;5008128;28;20233;-53
2023/04/08 06:45:03;;;;;;;11.40;9.80;;;;;;;;;;5011681;28;20197;-53
2023/04/08 06:47:30;;;;;;;10.57;9.47;;;;;;;;;;5005683;28;20544;-53
2023/04/08 06:49:56;;;;;;;11.57;9.50;;;;;;;;;;5006814;28;20661;-53
2023/04/08 06:52:22;;;;;;;12.33;9.67;;;;;;;;;;5007222;28;20781;-53
2023/04/08 06:54:48;;;;;;;12.27;9.93;;;;;;;;;;5017726;28;20190;-53
2023/04/08 06:57:14;;;;;;;10.63;9.53;;;;;;;;;;5020149;28;20237;-53
2023/04/08 06:59:40;;;;;;;13.23;10.47;;;;;;;;;;5008489;28;20178;-53
2023/04/08 07:02:06;;;;;;;12.83;10.07;;;;;;;;;;5015974;28;20639;-53
2023/04/08 07:04:32;;;;;;;13.17;10.30;;;;;;;;;;5013874;28;20189;-53
2023/04/08 07:06:58;;;;;;;12.67;10.30;;;;;;;;;;5011420;28;20260;-53
2023/04/08 07:09:24;;;;;;;11.93;9.77;;;;;;;;;;4998101;28;22099;-52
2023/04/08 07:11:50;;;;;;;13.47;11.80;;;;;;;;;;5008165;28;20213;-53
2023/04/08 07:14:17;;;;;;;15.30;11.60;;;;;;;;;;5010370;28;20766;-53
2023/04/08 07:16:43;;;;;;;17.40;12.57;;;;;;;;;;5004588;28;20189;-52
2023/04/08 07:19:09;;;;;;;17.00;12.93;;;;;;;;;;5007460;28;20178;-53
2023/04/08 07:21:35;;;;;;;18.43;13.10;;;;;;;;;;5005948;28;20218;-53
2023/04/08 07:24:01;;;;;;;18.47;13.87;;;;;;;;;;5005824;28;20646;-53
2023/04/08 07:26:27;;;;;;;19.97;14.77;;;;;;;;;;5017913;28;20210;-54
2023/04/08 07:28:53;;;;;;;24.57;15.80;;;;;;;;;;5011154;28;20187;-53
2023/04/08 07:31:20;;;;;;;22.30;15.43;;;;;;;;;;5006137;28;20635;-53
2023/04/08 07:33:46;;;;;;;21.83;15.63;;;;;;;;;;5011287;28;20198;-53
2023/04/08 07:36:12;;;;;;;26.47;17.60;;;;;;;;;;5004976;28;20175;-54
2023/04/08 07:38:39;;;;;;;24.83;17.70;;;;;;;;;;5007213;28;20716;-67
2023/04/08 07:41:05;;;;;;;27.97;18.57;;;;;;;;;;5008505;28;20721;-53
2023/04/08 07:43:33;;;;;;;26.93;18.10;;;;;;;;;;5005179;28;20179;-53
2023/04/08 07:46:03;;;;;;;30.37;19.50;;;;;;;;;;5006656;28;20243;-54
2023/04/08 07:48:30;;;;;;;32.90;19.47;;;;;;;;;;5004435;28;20182;-53
2023/04/08 07:50:56;;;;;;;33.47;19.37;;;;;;;;;;5003838;28;20179;-53
2023/04/08 07:53:23;;;;;;;35.93;19.97;;;;;;;;;;5010563;28;20178;-53
2023/04/08 07:55:50;;;;;;;33.73;19.97;;;;;;;;;;5010998;28;20650;-53
2023/04/08 07:58:16;;;;;;;36.53;21.53;;;;;;;;;;5010867;28;20249;-53
2023/04/08 08:00:42;;;;;;;31.30;20.80;;;;;;;;;;5005795;28;20197;-53
2023/04/08 08:03:08;;;;;;;35.20;21.77;;;;;;;;;;5010065;28;20944;-53
2023/04/08 08:05:36;;;;;;;35.90;20.17;;;;;;;;;;5003984;28;20744;-53
2023/04/08 08:08:02;;;;;;;35.63;21.20;;;;;;;;;;5006081;28;20653;-53
2023/04/08 08:10:28;;;;;;;30.17;20.67;;;;;;;;;;5001948;28;20183;-53
2023/04/08 08:12:55;;;;;;;35.23;20.87;;;;;;;;;;5009270;28;20191;-55
2023/04/08 08:15:21;;;;;;;31.80;19.83;;;;;;;;;;5009638;28;20182;-56
2023/04/08 08:17:47;;;;;;;32.63;20.17;;;;;;;;;;5008577;28;20745;-58
2023/04/08 08:20:13;;;;;;;31.60;20.83;;;;;;;;;;5009475;28;20539;-55
2023/04/08 08:22:39;;;;;;;31.70;19.97;;;;;;;;;;5007648;28;20252;-55
2023/04/08 08:25:06;;;;;;;28.00;20.27;;;;;;;;;;5005796;28;20206;-55
2023/04/08 08:27:33;;;;;;;30.83;20.63;;;;;;;;;;5006622;28;20189;-56
2023/04/08 08:29:59;;;;;;;36.80;23.80;;;;;;;;;;5008455;28;20260;-55
2023/04/08 08:32:25;;;;;;;44.70;28.00;;;;;;;;;;5013403;28;20618;-53
2023/04/08 08:34:51;;;;;;;55.67;33.60;;;;;;;;;;5007654;28;20190;-53
2023/04/08 08:37:17;;;;;;;65.73;33.87;;;;;;;;;;5007114;28;20662;-56
2023/04/08 08:39:44;;;;;;;255.83;50.63;;;;;;;;;;5010556;28;20257;-55
2023/04/08 08:42:23;;;;;;;815.50;112.40;;;;;;;;;;5009097;28;20613;-57
2023/04/08 08:44:49;;;;;;;1514.03;199.83;;;;;;;;;;5011893;28;20736;-57
2023/04/08 08:47:16;;;;;;;1999.90;276.20;;;;;;;;;;5008329;28;20190;-57
2023/04/08 08:49:42;;;;;;;1455.60;197.13;;;;;;;;;;5010769;28;20682;-57
2023/04/08 08:52:08;;;;;;;1017.20;143.27;;;;;;;;;;5007807;28;20492;-57
2023/04/08 08:54:35;;;;;;;322.33;61.63;;;;;;;;;;5002833;28;20183;-53
2023/04/08 08:57:01;;;;;;;62.50;36.00;;;;;;;;;;5004629;28;20183;-53
2023/04/08 08:59:27;;;;;;;66.03;34.90;;;;;;;;;;5004978;28;20183;-53
2023/04/08 09:01:53;;;;;;;75.77;38.90;;;;;;;;;;5017400;28;20189;-53
2023/04/08 09:04:21;;;;;;;71.80;37.80;;;;;;;;;;5011789;28;20190;-53
2023/04/08 09:06:48;;;;;;;196.40;49.83;;;;;;;;;;4998168;28;20957;-53
2023/04/08 09:09:15;;;;;;;80.30;40.40;;;;;;;;;;5005833;28;20248;-53
2023/04/08 09:11:42;;;;;;;91.30;39.63;;;;;;;;;;5007721;28;20298;-53
2023/04/08 09:14:24;;;;;;;76.90;39.87;;;;;;;;;;5010220;28;20646;-53
2023/04/08 09:16:51;;;;;;;76.63;39.37;;;;;;;;;;5009197;28;20256;-53
2023/04/08 09:19:17;;;;;;;63.13;36.13;;;;;;;;;;5005585;28;20280;-53
2023/04/08 09:21:43;;;;;;;76.40;41.33;;;;;;;;;;5008105;28;20238;-53
2023/04/08 09:24:16;;;;;;;79.80;40.70;;;;;;;;;;5017279;28;20270;-53
2023/04/08 09:26:45;;;;;;;78.17;39.00;;;;;;;;;;5004497;28;20289;-53
2023/04/08 09:29:11;;;;;;;71.73;39.87;;;;;;;;;;5009263;28;20197;-53
2023/04/08 09:31:41;;;;;;;72.33;37.87;;;;;;;;;;5007001;28;22068;-53
2023/04/08 09:34:11;;;;;;;66.67;38.50;;;;;;;;;;5001534;28;20723;-54
2023/04/08 09:36:37;;;;;;;65.77;36.40;;;;;;;;;;5006289;28;20182;-54
2023/04/08 09:39:03;;;;;;;72.23;39.17;;;;;;;;;;5002007;28;20198;-54
2023/04/08 09:41:33;;;;;;;65.93;36.70;;;;;;;;;;5001880;28;20174;-54
2023/04/08 09:43:59;;;;;;;70.90;39.70;;;;;;;;;;5006044;28;20178;-53
2023/04/08 09:46:28;;;;;;;67.00;39.83;;;;;;;;;;5011459;28;20175;-53
2023/04/08 09:48:56;;;;;;;64.17;40.27;;;;;;;;;;5000367;28;20274;-53
2023/04/08 09:51:23;;;;;;;64.40;37.83;;;;;;;;;;5004190;28;20190;-54
2023/04/08 09:53:56;;;;;;;55.50;35.67;;;;;;;;;;5011415;28;20477;-53
2023/04/08 09:56:22;;;;;;;41.50;30.47;;;;;;;;;;5004527;28;20536;-54
2023/04/08 09:58:52;;;;;;;38.00;29.53;;;;;;;;;;4995634;28;20195;-53
2023/04/08 10:01:21;;;;;;;39.03;30.17;;;;;;;;;;4996917;28;20695;-53
2023/04/08 10:03:49;;;;;;;37.57;28.37;;;;;;;;;;5003860;28;20666;-53
2023/04/08 10:06:15;;;;;;;36.50;28.53;;;;;;;;;;5002431;28;20217;-54
2023/04/08 10:08:42;;;;;;;38.57;29.30;;;;;;;;;;5004746;28;20294;-54
2023/04/08 10:11:08;;;;;;;36.43;28.97;;;;;;;;;;5007152;28;20859;-54
2023/04/08 10:13:34;;;;;;;37.20;28.20;;;;;;;;;;5006530;28;20693;-54
2023/04/08 10:16:17;;;;;;;34.47;28.03;;;;;;;;;;4996150;28;20724;-53
2023/04/08 10:18:44;;;;;;;32.60;26.47;;;;;;;;;;5011301;28;21024;-53
2023/04/08 10:21:29;;;;;;;30.07;24.87;;;;;;;;;;5004658;28;20598;-53
2023/04/08 10:23:58;;;;;;;29.20;23.50;;;;;;;;;;5011691;28;20209;-53
2023/04/08 10:26:32;;;;;;;35.63;21.80;;;;;;;;;;5005492;28;20274;-53
2023/04/08 10:29:16;;;;;;;25.10;20.27;;;;;;;;;;5004437;28;20190;-53
2023/04/08 10:31:43;;;;;;;22.37;19.00;;;;;;;;;;5006159;28;20197;-54
2023/04/08 10:34:38;;;;;;;25.43;19.73;;;;;;;;;;5001281;28;20174;-53
2023/04/08 10:37:05;;;;;;;23.13;18.20;;;;;;;;;;5001505;28;20210;-53
2023/04/08 10:39:31;;;;;;;18.03;14.87;;;;;;;;;;5008274;28;20179;-53
2023/04/08 10:41:57;;;;;;;16.27;12.53;;;;;;;;;;4990156;28;20277;-53
2023/04/08 10:44:25;;;;;;;14.00;12.50;;;;;;;;;;5002022;28;20774;-53
2023/04/08 10:46:52;;;;;;;11.83;10.30;;;;;;;;;;5009194;28;20171;-52
2023/04/08 10:49:18;;;;;;;13.40;11.57;;;;;;;;;;5018317;28;20185;-53
2023/04/08 10:51:45;;;;;;;12.70;11.07;;;;;;;;;;5013087;28;20186;-53
2023/04/08 10:54:12;;;;;;;12.27;11.07;;;;;;;;;;5013048;28;20217;-55
2023/04/08 10:56:52;;;;;;;11.07;9.97;;;;;;;;;;5014368;28;20694;-53
2023/04/08 10:59:31;;;;;;;10.50;9.43;;;;;;;;;;5015346;28;20173;-53
2023/04/08 11:01:58;;;;;;;11.63;10.53;;;;;;;;;;5008560;28;20185;-52
2023/04/08 11:04:25;;;;;;;11.77;9.83;;;;;;;;;;5012319;28;20573;-53
2023/04/08 11:06:51;;;;;;;10.17;9.17;;;;;;;;;;5020902;28;20566;-53
2023/04/08 11:09:17;;;;;;;10.30;9.10;;;;;;;;;;5009571;28;20171;-51
2023/04/08 11:11:44;;;;;;;33.60;20.40;;;;;;;;;;5003924;28;20210;-53
2023/04/08 11:14:10;;;;;;;12.87;10.17;;;;;;;;;;5020752;28;20653;-51
2023/04/08 11:16:37;;;;;;;9.20;7.13;;;;;;;;;;5013935;28;20197;-51
2023/04/08 11:19:04;;;;;;;8.93;7.40;;;;;;;;;;5014652;28;20662;-53
2023/04/08 11:21:31;;;;;;;8.23;7.43;;;;;;;;;;5011999;28;20218;-53
2023/04/08 11:23:57;;;;;;;8.20;7.40;;;;;;;;;;5015273;28;20265;-50
2023/04/08 11:26:25;;;;;;;7.93;7.00;;;;;;;;;;5016479;28;20686;-51
2023/04/08 11:28:51;;;;;;;8.00;7.20;;;;;;;;;;5013960;28;20245;-53
2023/04/08 11:31:18;;;;;;;7.20;6.50;;;;;;;;;;5013272;28;20186;-53
2023/04/08 11:33:46;;;;;;;7.50;6.80;;;;;;;;;;5010118;28;20605;-53
2023/04/08 11:36:12;;;;;;;8.53;7.50;;;;;;;;;;5015620;28;20177;-52
2023/04/08 11:38:41;;;;;;;8.07;7.20;;;;;;;;;;5011912;28;20209;-50
2023/04/08 11:41:07;;;;;;;8.00;7.20;;;;;;;;;;5016001;28;20209;-51
2023/04/08 11:43:35;;;;;;;8.27;7.37;;;;;;;;;;5013877;28;21573;-52
2023/04/08 11:46:08;;;;;;;8.00;7.30;;;;;;;;;;5019987;28;20182;-51
2023/04/08 11:48:35;;;;;;;7.77;7.07;;;;;;;;;;5019545;28;20177;-51
2023/04/08 11:51:07;;;;;;;8.57;7.77;;;;;;;;;;5013959;28;20181;-51
2023/04/08 11:53:34;;;;;;;8.63;7.73;;;;;;;;;;5014764;28;20193;-51
2023/04/08 11:56:15;;;;;;;7.73;7.03;;;;;;;;;;5009626;28;20670;-51
2023/04/08 11:58:41;;;;;;;9.33;8.20;;;;;;;;;;5017849;28;20266;-51
2023/04/08 12:01:07;;;;;;;9.47;8.57;;;;;;;;;;5016201;28;20185;-52
2023/04/08 12:03:33;;;;;;;8.50;7.60;;;;;;;;;;5008008;28;20190;-52
2023/04/08 12:05:59;;;;;;;8.50;7.13;;;;;;;;;;5006907;28;20190;-52
2023/04/08 12:08:25;;;;;;;8.03;7.23;;;;;;;;;;5007511;28;20241;-52
2023/04/08 12:10:51;;;;;;;8.50;7.53;;;;;;;;;;5010136;28;20189;-52
2023/04/08 12:13:17;;;;;;;9.07;7.73;;;;;;;;;;5010734;28;20194;-52
2023/04/08 12:15:44;;;;;;;9.23;7.87;;;;;;;;;;5009653;28;20186;-52
2023/04/08 12:18:10;;;;;;;8.60;7.70;;;;;;;;;;5010490;28;20202;-52
2023/04/08 12:20:36;;;;;;;7.93;7.23;;;;;;;;;;5007131;28;20182;-52
2023/04/08 12:23:02;;;;;;;7.90;7.10;;;;;;;;;;5001816;28;20197;-52
2023/04/08 12:25:30;;;;;;;10.60;8.60;;;;;;;;;;5001981;28;20190;-52
2023/04/08 12:27:56;;;;;;;7.90;7.10;;;;;;;;;;5009942;28;20174;-52
2023/04/08 12:30:22;;;;;;;8.73;7.83;;;;;;;;;;4998730;28;20269;-51
2023/04/08 12:32:48;;;;;;;9.30;7.50;;;;;;;;;;5005882;28;20190;-52
2023/04/08 12:35:14;;;;;;;9.87;7.67;;;;;;;;;;5004710;28;20171;-52
2023/04/08 12:37:40;;;;;;;8.10;7.13;;;;;;;;;;5009082;28;20202;-51
2023/04/08 12:40:06;;;;;;;8.43;7.50;;;;;;;;;;5001941;28;20623;-53
2023/04/08 12:42:33;;;;;;;7.20;6.50;;;;;;;;;;5003966;28;20642;-52
2023/04/08 12:44:59;;;;;;;8.60;7.80;;;;;;;;;;5005748;28;20257;-51
2023/04/08 12:47:25;;;;;;;9.27;7.40;;;;;;;;;;5010095;28;20261;-52
2023/04/08 12:49:51;;;;;;;8.37;7.57;;;;;;;;;;5009228;28;20601;-52
2023/04/08 12:52:18;;;;;;;7.87;7.13;;;;;;;;;;5006066;28;20714;-52
2023/04/08 12:54:44;;;;;;;8.60;7.37;;;;;;;;;;5004929;28;20186;-52
2023/04/08 12:57:11;;;;;;;8.33;7.23;;;;;;;;;;5009592;28;20185;-52
2023/04/08 12:59:38;;;;;;;8.80;7.57;;;;;;;;;;5007781;28;20245;-52
2023/04/08 13:02:04;;;;;;;7.80;7.10;;;;;;;;;;5004085;28;20269;-52
2023/04/08 13:04:30;;;;;;;17.70;12.63;;;;;;;;;;5005580;28;20407;-53
2023/04/08 13:06:58;;;;;;;7.93;6.70;;;;;;;;;;5000827;28;20551;-52
2023/04/08 13:09:24;;;;;;;7.13;6.43;;;;;;;;;;5005681;28;20183;-52
2023/04/08 13:11:50;;;;;;;7.60;6.83;;;;;;;;;;5007848;28;20202;-52
2023/04/08 13:14:17;;;;;;;7.30;6.60;;;;;;;;;;5000816;28;20190;-52
2023/04/08 13:16:43;;;;;;;6.60;5.97;;;;;;;;;;5001805;28;20213;-52
2023/04/08 13:19:09;;;;;;;5.80;5.27;;;;;;;;;;5005739;28;20202;-51
2023/04/08 13:21:35;;;;;;;8.13;6.47;;;;;;;;;;5002042;28;20301;-53
2023/04/08 13:24:01;;;;;;;7.00;5.53;;;;;;;;;;5000811;28;20278;-52
2023/04/08 13:26:27;;;;;;;6.50;5.13;;;;;;;;;;5005722;28;20206;-52
2023/04/08 13:28:53;;;;;;;6.57;5.87;;;;;;;;;;5008224;28;20196;-52
2023/04/08 13:31:19;;;;;;;6.03;5.50;;;;;;;;;;5000494;28;20202;-53
2023/04/08 13:33:45;;;;;;;6.43;5.83;;;;;;;;;;5001995;28;20178;-51
2023/04/08 13:36:11;;;;;;;7.93;5.90;;;;;;;;;;5007813;28;20265;-52
2023/04/08 13:38:37;;;;;;;6.23;5.63;;;;;;;;;;5006555;28;20286;-51
2023/04/08 13:41:04;;;;;;;7.23;6.63;;;;;;;;;;5007403;28;20185;-52
2023/04/08 13:43:30;;;;;;;8.27;7.43;;;;;;;;;;5004092;28;20174;-52
2023/04/08 13:45:56;;;;;;;7.47;6.77;;;;;;;;;;5006806;28;20706;-51
2023/04/08 13:48:22;;;;;;;6.77;6.20;;;;;;;;;;4995032;28;20209;-52
2023/04/08 13:50:48;;;;;;;7.80;7.10;;;;;;;;;;5007658;28;20751;-52
2023/04/08 13:53:14;;;;;;;7.90;7.20;;;;;;;;;;5004525;28;20186;-52
2023/04/08 13:56:18;;;;;;;7.90;7.17;;;;;;;;;;5003001;28;20241;-52
2023/04/08 13:58:44;;;;;;;7.93;7.17;;;;;;;;;;5003725;28;20687;-52
2023/04/08 14:01:10;;;;;;;7.87;7.27;;;;;;;;;;5022779;28;20182;-51
2023/04/08 14:03:36;;;;;;;9.43;8.60;;;;;;;;;;5008574;28;20202;-52
2023/04/08 14:06:02;;;;;;;9.37;8.47;;;;;;;;;;5006957;28;20178;-52
2023/04/08 14:08:28;;;;;;;10.20;9.17;;;;;;;;;;5010743;28;20494;-52
2023/04/08 14:10:58;;;;;;;10.73;9.73;;;;;;;;;;5014811;28;20267;-51
2023/04/08 14:13:24;;;;;;;11.57;10.37;;;;;;;;;;5009257;28;20624;-52
2023/04/08 14:15:52;;;;;;;13.53;10.33;;;;;;;;;;5007968;28;20736;-52
2023/04/08 14:18:18;;;;;;;11.60;10.53;;;;;;;;;;5008924;28;20213;-52
2023/04/08 14:20:44;;;;;;;12.70;11.30;;;;;;;;;;5009118;28;21095;-52
2023/04/08 14:23:12;;;;;;;12.33;11.07;;;;;;;;;;5008660;28;20592;-52
2023/04/08 14:25:38;;;;;;;12.03;11.03;;;;;;;;;;5009088;28;20175;-54
2023/04/08 14:28:05;;;;;;;12.97;11.53;;;;;;;;;;5006224;28;20189;-52
2023/04/08 14:30:31;;;;;;;12.73;11.53;;;;;;;;;;5004538;28;20171;-52